Time;durP1;ratioP1;P1;durP2;ratioP2;P2;SDS_P1;SDS_P2;PMS_P1;PMS_P2;Temp;Humidity;BMP_temperature;BMP_pressure;BME280_temperature;BME280_humidity;BME280_pressure;Samples;Min_cycle;Max_cycle;Signal;HPM_P1;HPM_P2
2021/10/23 00:00:38;;;;;;;3.70;1.63;;;6.90;99.90;;;;;;5115111;28;20793;-69
2021/10/23 00:03:04;;;;;;;4.50;1.60;;;6.90;99.90;;;;;;5114705;28;20467;-70
2021/10/23 00:05:31;;;;;;;10.90;1.93;;;6.90;99.90;;;;;;5114384;28;20478;-69
2021/10/23 00:07:58;;;;;;;9.10;2.90;;;6.90;99.90;;;;;;5114152;28;20482;-69
2021/10/23 00:10:25;;;;;;;3.90;1.47;;;6.90;99.90;;;;;;5114672;28;20557;-69
2021/10/23 00:12:52;;;;;;;7.40;1.73;;;6.90;99.90;;;;;;5115642;28;20784;-69
2021/10/23 00:15:19;;;;;;;5.03;2.50;;;6.90;99.90;;;;;;5118973;27;20454;-69
2021/10/23 00:17:47;;;;;;;5.00;1.77;;;6.90;99.90;;;;;;5118699;27;20828;-69
2021/10/23 00:20:13;;;;;;;8.03;1.97;;;6.90;99.90;;;;;;5118632;28;20459;-70
2021/10/23 00:22:40;;;;;;;5.30;1.50;;;6.90;99.90;;;;;;5118678;28;20834;-69
2021/10/23 00:25:08;;;;;;;6.63;1.67;;;6.90;99.90;;;;;;5118763;28;20481;-69
2021/10/23 00:27:35;;;;;;;11.40;2.10;;;6.80;99.90;;;;;;5118689;28;20457;-69
2021/10/23 00:30:02;;;;;;;6.70;1.50;;;6.80;99.90;;;;;;5118456;27;20452;-69
2021/10/23 00:32:29;;;;;;;4.37;2.00;;;6.80;99.90;;;;;;5119815;28;20471;-69
2021/10/23 00:34:57;;;;;;;5.10;1.70;;;6.80;99.90;;;;;;5119157;28;20450;-69
2021/10/23 00:37:24;;;;;;;4.63;1.53;;;6.80;99.90;;;;;;5118099;28;20459;-69
2021/10/23 00:39:50;;;;;;;3.83;1.87;;;6.80;99.90;;;;;;5118399;28;20450;-69
2021/10/23 00:42:17;;;;;;;3.93;1.73;;;6.80;99.90;;;;;;5117851;28;20466;-69
2021/10/23 00:44:45;;;;;;;8.20;2.10;;;6.70;99.90;;;;;;5118234;28;20542;-69
2021/10/23 00:47:13;;;;;;;10.93;1.77;;;6.70;99.90;;;;;;5117867;28;20458;-69
2021/10/23 00:49:41;;;;;;;10.53;2.17;;;6.70;99.90;;;;;;5118816;28;20454;-69
2021/10/23 00:52:09;;;;;;;5.83;2.23;;;6.70;99.90;;;;;;5117591;28;20959;-69
2021/10/23 00:54:38;;;;;;;5.77;2.20;;;6.70;99.90;;;;;;5117674;28;20447;-70
2021/10/23 00:57:05;;;;;;;6.97;1.73;;;6.70;99.90;;;;;;5117413;28;20473;-69
2021/10/23 00:59:32;;;;;;;4.83;1.60;;;6.70;99.90;;;;;;5117389;28;20487;-69
2021/10/23 01:01:59;;;;;;;5.60;1.70;;;6.70;99.90;;;;;;5117701;28;20782;-69
2021/10/23 01:04:26;;;;;;;5.80;1.53;;;6.70;99.90;;;;;;5117530;28;20474;-69
2021/10/23 01:06:54;;;;;;;7.40;2.30;;;6.70;99.90;;;;;;5117150;28;20492;-69
2021/10/23 01:09:24;;;;;;;3.73;1.60;;;6.70;99.90;;;;;;5117076;28;20475;-69
2021/10/23 01:11:51;;;;;;;9.07;2.00;;;6.70;99.90;;;;;;5117145;28;20536;-69
2021/10/23 01:14:19;;;;;;;5.87;1.50;;;6.70;99.90;;;;;;5116867;28;20461;-69
2021/10/23 01:16:48;;;;;;;12.67;2.40;;;6.70;99.90;;;;;;5117139;28;20460;-69
2021/10/23 01:19:17;;;;;;;7.80;2.27;;;6.70;99.90;;;;;;5116835;28;20917;-69
2021/10/23 01:21:47;;;;;;;9.83;1.97;;;6.70;99.90;;;;;;5116697;28;20829;-69
2021/10/23 01:24:15;;;;;;;7.17;1.97;;;6.70;99.90;;;;;;5116682;28;20451;-69
2021/10/23 01:26:42;;;;;;;3.60;2.10;;;6.70;99.90;;;;;;5116998;28;20879;-69
2021/10/23 01:29:12;;;;;;;6.17;2.23;;;6.70;99.90;;;;;;5117654;27;20465;-69
2021/10/23 01:31:39;;;;;;;8.27;2.17;;;6.70;99.90;;;;;;5117652;27;20519;-69
2021/10/23 01:34:13;;;;;;;8.83;2.13;;;6.60;99.90;;;;;;5117465;28;20979;-69
2021/10/23 01:36:47;;;;;;;9.40;2.20;;;6.60;99.90;;;;;;5117342;28;20824;-69
2021/10/23 01:39:14;;;;;;;8.17;2.13;;;6.70;99.90;;;;;;5116869;28;20894;-69
2021/10/23 01:41:41;;;;;;;8.43;2.00;;;6.70;99.90;;;;;;5116960;28;20467;-69
2021/10/23 01:44:10;;;;;;;9.37;2.60;;;6.70;99.90;;;;;;5116540;28;20464;-69
2021/10/23 01:46:37;;;;;;;4.30;1.97;;;6.70;99.90;;;;;;5116853;28;20975;-69
2021/10/23 01:49:05;;;;;;;6.73;2.00;;;6.70;99.90;;;;;;5116908;28;20464;-69
2021/10/23 01:51:32;;;;;;;12.50;2.27;;;6.70;99.90;;;;;;5116420;28;20484;-69
2021/10/23 01:54:02;;;;;;;9.97;1.93;;;6.70;99.90;;;;;;5116632;28;20458;-69
2021/10/23 01:56:29;;;;;;;7.10;2.20;;;6.70;99.90;;;;;;5116338;28;20585;-70
2021/10/23 01:58:56;;;;;;;10.13;1.57;;;6.70;99.90;;;;;;5116680;28;20450;-70
2021/10/23 02:01:22;;;;;;;10.57;2.43;;;6.70;99.90;;;;;;5116230;27;20829;-70
2021/10/23 02:03:49;;;;;;;7.10;2.20;;;6.70;99.90;;;;;;5117010;28;20796;-69
2021/10/23 02:06:16;;;;;;;8.10;2.40;;;6.70;99.90;;;;;;5115885;28;20480;-70
2021/10/23 02:08:42;;;;;;;5.47;1.50;;;6.70;99.90;;;;;;5116399;28;20496;-70
2021/10/23 02:11:10;;;;;;;10.37;2.17;;;6.70;99.90;;;;;;5116222;28;20461;-70
2021/10/23 02:13:37;;;;;;;5.23;2.33;;;6.70;99.90;;;;;;5116114;28;20786;-70
2021/10/23 02:16:04;;;;;;;8.47;1.70;;;6.70;99.90;;;;;;5115964;28;20936;-70
2021/10/23 02:18:31;;;;;;;5.70;2.10;;;6.70;99.90;;;;;;5116127;28;20455;-70
2021/10/23 02:20:59;;;;;;;9.03;1.60;;;6.60;99.90;;;;;;5116220;28;20458;-69
2021/10/23 02:23:26;;;;;;;9.33;2.50;;;6.60;99.90;;;;;;5116099;28;20459;-69
2021/10/23 02:25:53;;;;;;;3.97;2.00;;;6.60;99.90;;;;;;5115666;28;20481;-70
2021/10/23 02:28:21;;;;;;;6.60;1.43;;;6.60;99.90;;;;;;5115969;28;20535;-69
2021/10/23 02:30:48;;;;;;;4.47;2.10;;;6.60;99.90;;;;;;5115694;28;20454;-69
2021/10/23 02:33:15;;;;;;;5.53;2.30;;;6.60;99.90;;;;;;5115903;28;20466;-69
2021/10/23 02:35:41;;;;;;;8.77;2.10;;;6.60;99.90;;;;;;5115345;28;20510;-70
2021/10/23 02:38:10;;;;;;;4.10;1.70;;;6.60;99.90;;;;;;5115179;28;20464;-69
2021/10/23 02:40:37;;;;;;;4.67;2.10;;;6.60;99.90;;;;;;5115990;28;20458;-69
2021/10/23 02:43:04;;;;;;;14.23;1.73;;;6.60;99.90;;;;;;5115998;28;20468;-69
2021/10/23 02:45:32;;;;;;;19.00;2.37;;;6.60;99.90;;;;;;5115915;28;20478;-69
2021/10/23 02:47:59;;;;;;;2.90;1.53;;;6.60;99.90;;;;;;5116757;28;20460;-69
2021/10/23 02:50:26;;;;;;;9.37;2.03;;;6.60;99.90;;;;;;5119118;28;20457;-70
2021/10/23 02:52:53;;;;;;;7.17;1.90;;;6.50;99.90;;;;;;5120242;28;20464;-69
2021/10/23 02:55:20;;;;;;;7.93;2.20;;;6.60;99.90;;;;;;5118282;28;20487;-69
2021/10/23 02:57:47;;;;;;;7.70;1.90;;;6.60;99.90;;;;;;5119059;28;20450;-69
2021/10/23 03:00:15;;;;;;;6.50;1.47;;;6.60;99.90;;;;;;5119137;28;20458;-69
2021/10/23 03:02:43;;;;;;;10.93;2.60;;;6.60;99.90;;;;;;5124660;28;20463;-69
2021/10/23 03:05:10;;;;;;;7.00;1.77;;;6.60;99.90;;;;;;5119632;28;20478;-69
2021/10/23 03:07:36;;;;;;;9.03;1.57;;;6.60;99.90;;;;;;5115218;28;20482;-69
2021/10/23 03:10:04;;;;;;;13.27;2.13;;;6.60;99.90;;;;;;5115338;28;20757;-69
2021/10/23 03:12:31;;;;;;;6.27;2.20;;;6.60;99.90;;;;;;5115384;28;20480;-69
2021/10/23 03:14:58;;;;;;;10.47;1.90;;;6.60;99.90;;;;;;5115266;28;20450;-69
2021/10/23 03:17:24;;;;;;;8.63;1.50;;;6.60;99.90;;;;;;5113720;28;20462;-70
2021/10/23 03:19:52;;;;;;;3.87;1.60;;;6.60;99.90;;;;;;5115331;28;20454;-69
2021/10/23 03:22:19;;;;;;;11.43;1.80;;;6.60;99.90;;;;;;5115529;28;20832;-69
2021/10/23 03:24:46;;;;;;;12.13;1.80;;;6.60;99.90;;;;;;5115305;28;20458;-69
2021/10/23 03:27:14;;;;;;;6.47;1.80;;;6.60;99.90;;;;;;5115321;28;20458;-69
2021/10/23 03:29:43;;;;;;;3.30;1.20;;;6.50;99.90;;;;;;5115077;28;20935;-69
2021/10/23 03:32:09;;;;;;;7.53;1.77;;;6.50;99.90;;;;;;5115020;28;20489;-69
2021/10/23 03:34:36;;;;;;;5.90;1.57;;;6.50;99.90;;;;;;5114956;28;20458;-69
2021/10/23 03:37:04;;;;;;;5.50;1.47;;;6.50;99.90;;;;;;5114939;28;20513;-69
2021/10/23 03:39:31;;;;;;;10.00;2.27;;;6.60;99.90;;;;;;5114801;28;20480;-69
2021/10/23 03:41:58;;;;;;;6.17;1.83;;;6.60;99.90;;;;;;5114813;28;20585;-69
2021/10/23 03:44:25;;;;;;;10.10;1.70;;;6.60;99.90;;;;;;5115473;28;20468;-69
2021/10/23 03:46:52;;;;;;;9.13;2.43;;;6.60;99.90;;;;;;5114667;28;20485;-69
2021/10/23 03:49:18;;;;;;;14.27;2.53;;;6.60;99.90;;;;;;5118102;28;20458;-69
2021/10/23 03:51:45;;;;;;;2.87;1.40;;;6.60;99.90;;;;;;5118898;28;20458;-69
2021/10/23 03:54:13;;;;;;;6.90;2.33;;;6.60;99.90;;;;;;5119004;28;20836;-69
2021/10/23 03:56:40;;;;;;;8.30;2.10;;;6.60;99.90;;;;;;5118678;28;20543;-68
2021/10/23 03:59:08;;;;;;;5.90;1.60;;;6.60;99.90;;;;;;5119035;28;20787;-69
2021/10/23 04:01:34;;;;;;;5.90;1.87;;;6.60;99.90;;;;;;5118868;28;20457;-69
2021/10/23 04:04:02;;;;;;;8.33;1.97;;;6.60;99.90;;;;;;5118636;28;20516;-69
2021/10/23 04:06:28;;;;;;;3.50;1.57;;;6.60;99.90;;;;;;5118404;27;20571;-69
2021/10/23 04:08:55;;;;;;;6.67;1.60;;;6.60;99.90;;;;;;5118760;28;20445;-69
2021/10/23 04:11:23;;;;;;;5.00;1.40;;;6.60;99.90;;;;;;5118805;28;20458;-69
2021/10/23 04:13:50;;;;;;;9.00;2.20;;;6.60;99.90;;;;;;5118994;27;20449;-70
2021/10/23 04:16:16;;;;;;;9.33;2.10;;;6.70;99.90;;;;;;5118510;28;20522;-69
2021/10/23 04:18:43;;;;;;;14.13;2.17;;;6.70;99.90;;;;;;5118137;27;20529;-69
2021/10/23 04:21:13;;;;;;;7.30;1.80;;;6.70;99.90;;;;;;5118795;28;20454;-69
2021/10/23 04:23:40;;;;;;;6.03;1.63;;;6.70;99.90;;;;;;5118342;28;20449;-69
2021/10/23 04:26:06;;;;;;;6.03;1.97;;;6.70;99.90;;;;;;5118988;28;20551;-69
2021/10/23 04:28:34;;;;;;;4.83;2.00;;;6.70;99.90;;;;;;5118283;27;20477;-69
2021/10/23 04:31:01;;;;;;;7.90;1.93;;;6.70;99.90;;;;;;5118156;28;20494;-69
2021/10/23 04:33:28;;;;;;;10.00;1.73;;;6.70;99.90;;;;;;5118635;28;20530;-69
2021/10/23 04:35:54;;;;;;;6.93;1.50;;;6.70;99.90;;;;;;5117970;28;20518;-69
2021/10/23 04:38:21;;;;;;;2.80;1.30;;;6.60;99.90;;;;;;5118103;27;20737;-70
2021/10/23 04:40:48;;;;;;;6.00;1.80;;;6.60;99.90;;;;;;5118189;28;20921;-69
2021/10/23 04:43:15;;;;;;;5.93;1.60;;;6.60;99.90;;;;;;5118176;28;20740;-69
2021/10/23 04:45:43;;;;;;;5.80;1.90;;;6.60;99.90;;;;;;5117892;28;20478;-69
2021/10/23 04:48:09;;;;;;;7.10;1.80;;;6.60;99.90;;;;;;5117763;28;20772;-69
2021/10/23 04:50:36;;;;;;;5.97;1.70;;;6.60;99.90;;;;;;5118044;28;20982;-69
2021/10/23 04:53:03;;;;;;;3.00;1.40;;;6.60;99.90;;;;;;5117467;27;20926;-69
2021/10/23 04:55:30;;;;;;;5.53;1.83;;;6.60;99.90;;;;;;5117663;28;20449;-69
2021/10/23 04:57:57;;;;;;;6.53;2.07;;;6.50;99.90;;;;;;5117568;28;20468;-69
2021/10/23 05:00:24;;;;;;;9.67;2.20;;;6.50;99.90;;;;;;5116358;28;20472;-69
2021/10/23 05:02:52;;;;;;;7.60;1.80;;;6.50;99.90;;;;;;5117538;28;20568;-69
2021/10/23 05:05:19;;;;;;;5.67;1.90;;;6.50;99.90;;;;;;5117903;28;20521;-69
2021/10/23 05:07:46;;;;;;;9.33;2.07;;;6.50;99.90;;;;;;5117654;28;20477;-69
2021/10/23 05:10:14;;;;;;;10.20;2.23;;;6.50;99.90;;;;;;5117876;28;20474;-69
2021/10/23 05:12:41;;;;;;;5.03;1.47;;;6.50;99.90;;;;;;5117320;28;20453;-70
2021/10/23 05:15:08;;;;;;;10.23;1.70;;;6.40;99.90;;;;;;5117742;28;20463;-69
2021/10/23 05:17:35;;;;;;;9.00;1.90;;;6.40;99.90;;;;;;5117666;28;20457;-69
2021/10/23 05:20:05;;;;;;;4.87;1.60;;;6.40;99.90;;;;;;5117190;28;20517;-69
2021/10/23 05:22:32;;;;;;;4.50;1.47;;;6.40;99.90;;;;;;5117532;28;20536;-69
2021/10/23 05:24:59;;;;;;;11.67;2.33;;;6.40;99.90;;;;;;5117212;28;20534;-69
2021/10/23 05:27:26;;;;;;;10.07;2.07;;;6.30;99.90;;;;;;5116890;28;20964;-69
2021/10/23 05:29:53;;;;;;;3.83;1.90;;;6.30;99.90;;;;;;5116606;28;20465;-70
2021/10/23 05:32:19;;;;;;;4.90;1.87;;;6.30;99.90;;;;;;5117182;28;20457;-69
2021/10/23 05:34:46;;;;;;;7.20;1.87;;;6.30;99.90;;;;;;5116705;28;20459;-69
2021/10/23 05:37:15;;;;;;;8.57;2.13;;;6.30;99.90;;;;;;5116834;28;21000;-69
2021/10/23 05:39:41;;;;;;;10.03;2.43;;;6.30;99.90;;;;;;5116862;27;20535;-69
2021/10/23 05:42:08;;;;;;;12.40;2.27;;;6.30;99.90;;;;;;5116679;28;20921;-68
2021/10/23 05:44:35;;;;;;;8.07;2.70;;;6.30;99.90;;;;;;5116252;28;20461;-69
2021/10/23 05:47:02;;;;;;;11.00;1.60;;;6.30;99.90;;;;;;5117085;28;20477;-69
2021/10/23 05:49:29;;;;;;;3.77;1.50;;;6.30;99.90;;;;;;5116705;28;20452;-69
2021/10/23 05:51:55;;;;;;;14.87;2.40;;;6.30;99.90;;;;;;5116926;28;20468;-69
2021/10/23 05:54:23;;;;;;;8.23;2.00;;;6.30;99.90;;;;;;5116229;28;20469;-68
2021/10/23 05:56:50;;;;;;;5.20;2.00;;;6.30;99.90;;;;;;5116819;28;20482;-69
2021/10/23 05:59:17;;;;;;;9.43;2.20;;;6.30;99.90;;;;;;5116739;27;20529;-69
2021/10/23 06:01:45;;;;;;;11.90;2.60;;;6.30;99.90;;;;;;5116321;28;20484;-69
2021/10/23 06:04:14;;;;;;;3.97;1.90;;;6.30;99.90;;;;;;5116443;28;20837;-69
2021/10/23 06:06:41;;;;;;;8.20;2.10;;;6.30;99.90;;;;;;5116381;28;20492;-70
2021/10/23 06:09:08;;;;;;;8.03;2.37;;;6.30;99.90;;;;;;5116009;28;20457;-69
2021/10/23 06:11:36;;;;;;;7.70;1.90;;;6.40;99.90;;;;;;5116106;28;20823;-69
2021/10/23 06:14:04;;;;;;;8.67;2.37;;;6.30;99.90;;;;;;5116645;28;20487;-69
2021/10/23 06:16:32;;;;;;;10.30;3.27;;;6.40;99.90;;;;;;5116052;28;20446;-69
2021/10/23 06:18:59;;;;;;;10.03;2.33;;;6.40;99.90;;;;;;5116413;28;20781;-69
2021/10/23 06:21:25;;;;;;;7.40;2.30;;;6.30;99.90;;;;;;5116200;27;20449;-69
2021/10/23 06:23:52;;;;;;;4.57;1.87;;;6.40;99.90;;;;;;5115983;28;20454;-69
2021/10/23 06:26:19;;;;;;;6.47;2.00;;;6.40;99.90;;;;;;5116172;28;20477;-69
2021/10/23 06:28:47;;;;;;;4.50;2.00;;;6.40;99.90;;;;;;5115715;28;20489;-69
2021/10/23 06:31:13;;;;;;;7.93;2.13;;;6.40;99.90;;;;;;5116077;28;20449;-69
2021/10/23 06:33:43;;;;;;;5.27;1.50;;;6.40;99.90;;;;;;5116540;28;20471;-69
2021/10/23 06:36:09;;;;;;;7.80;2.40;;;6.40;99.90;;;;;;5116325;28;20464;-69
2021/10/23 06:38:36;;;;;;;10.97;3.47;;;6.40;99.90;;;;;;5116143;28;20457;-69
2021/10/23 06:41:03;;;;;;;4.70;2.40;;;6.40;99.90;;;;;;5116259;28;20466;-69
2021/10/23 06:43:30;;;;;;;4.40;1.53;;;6.40;99.90;;;;;;5116543;28;20454;-69
2021/10/23 06:45:57;;;;;;;5.07;1.90;;;6.50;99.90;;;;;;5116170;27;20453;-68
2021/10/23 06:48:27;;;;;;;7.63;2.20;;;6.50;99.90;;;;;;5116989;28;20592;-69
2021/10/23 06:50:54;;;;;;;8.80;2.50;;;6.50;99.90;;;;;;5115769;28;20459;-69
2021/10/23 06:53:20;;;;;;;10.13;2.13;;;6.50;99.90;;;;;;5115243;28;20464;-69
2021/10/23 06:55:47;;;;;;;9.10;2.10;;;6.60;99.90;;;;;;5116132;28;20486;-68
2021/10/23 06:58:14;;;;;;;6.23;2.23;;;6.60;99.90;;;;;;5115907;28;20474;-69
2021/10/23 07:00:41;;;;;;;7.60;2.00;;;6.60;99.90;;;;;;5115685;28;20539;-69
2021/10/23 07:03:09;;;;;;;6.40;2.00;;;6.70;99.90;;;;;;5115462;28;20831;-69
2021/10/23 07:05:36;;;;;;;9.53;2.27;;;6.70;99.90;;;;;;5114846;28;20914;-69
2021/10/23 07:08:03;;;;;;;7.20;1.73;;;6.70;99.90;;;;;;5114901;28;20490;-68
2021/10/23 07:10:30;;;;;;;12.33;2.47;;;6.70;99.90;;;;;;5115416;28;20558;-69
2021/10/23 07:12:56;;;;;;;7.57;1.97;;;6.80;99.90;;;;;;5114748;28;20784;-68
2021/10/23 07:15:23;;;;;;;5.43;2.13;;;6.80;99.90;;;;;;5115337;28;20475;-69
2021/10/23 07:17:50;;;;;;;6.40;2.23;;;6.90;99.90;;;;;;5114798;28;20945;-69
2021/10/23 07:20:18;;;;;;;6.37;2.13;;;6.90;99.90;;;;;;5114901;28;20455;-68
2021/10/23 07:22:45;;;;;;;8.73;1.63;;;7.00;99.90;;;;;;5114266;28;20462;-69
2021/10/23 07:25:11;;;;;;;6.57;2.13;;;7.00;99.90;;;;;;5114990;28;20557;-68
2021/10/23 07:27:38;;;;;;;14.83;2.30;;;7.10;99.90;;;;;;5115008;28;20578;-68
2021/10/23 07:30:09;;;;;;;1.97;1.70;;;7.10;99.90;;;;;;5115044;28;20470;-69
2021/10/23 07:32:36;;;;;;;9.67;2.70;;;7.10;99.90;;;;;;5114848;28;20504;-69
2021/10/23 07:35:03;;;;;;;6.87;1.90;;;7.20;99.90;;;;;;5115177;28;20473;-70
2021/10/23 07:37:31;;;;;;;6.13;1.90;;;7.30;99.90;;;;;;5115105;28;20533;-69
2021/10/23 07:39:58;;;;;;;9.83;2.33;;;7.30;99.90;;;;;;5115021;28;20488;-70
2021/10/23 07:42:27;;;;;;;5.87;2.13;;;7.50;99.90;;;;;;5115033;28;20464;-71
2021/10/23 07:45:00;;;;;;;12.43;2.60;;;7.60;99.90;;;;;;5114701;28;20521;-70
2021/10/23 07:47:27;;;;;;;6.27;2.50;;;7.70;99.90;;;;;;5115574;28;20544;-70
2021/10/23 07:49:55;;;;;;;6.57;2.43;;;7.80;99.90;;;;;;5114648;28;20462;-70
2021/10/23 07:52:22;;;;;;;6.40;1.93;;;7.80;99.90;;;;;;5114899;28;20853;-68
2021/10/23 07:54:50;;;;;;;5.70;2.20;;;7.90;99.90;;;;;;5114475;28;20950;-69
2021/10/23 07:57:17;;;;;;;7.00;2.03;;;8.00;99.90;;;;;;5114707;28;20483;-69
2021/10/23 07:59:45;;;;;;;8.80;2.77;;;8.10;99.90;;;;;;5114878;28;20793;-69
2021/10/23 08:02:12;;;;;;;7.73;2.20;;;8.10;99.90;;;;;;5114605;28;20467;-69
2021/10/23 08:04:39;;;;;;;13.33;3.23;;;8.10;99.90;;;;;;5114299;28;20917;-68
2021/10/23 08:07:06;;;;;;;14.70;3.30;;;8.20;99.90;;;;;;5114291;28;20540;-68
2021/10/23 08:09:34;;;;;;;8.70;2.57;;;8.20;99.90;;;;;;5114783;28;20541;-69
2021/10/23 08:12:04;;;;;;;7.43;2.30;;;8.20;99.90;;;;;;5114712;28;20527;-69
2021/10/23 08:14:31;;;;;;;8.43;2.53;;;8.30;99.90;;;;;;5114347;28;20919;-70
2021/10/23 08:16:58;;;;;;;8.30;2.50;;;8.30;99.90;;;;;;5114365;28;20456;-71
2021/10/23 08:19:25;;;;;;;10.80;2.43;;;8.30;99.90;;;;;;5114647;28;20594;-68
2021/10/23 08:21:52;;;;;;;5.40;2.53;;;8.40;99.90;;;;;;5114653;28;20823;-69
2021/10/23 08:24:19;;;;;;;5.60;2.70;;;8.40;99.90;;;;;;5114721;28;20457;-70
2021/10/23 08:26:45;;;;;;;11.00;2.50;;;8.30;99.90;;;;;;5114663;28;20831;-70
2021/10/23 08:29:14;;;;;;;8.87;2.17;;;8.30;99.90;;;;;;5114726;28;20460;-69
2021/10/23 08:31:41;;;;;;;15.83;3.13;;;8.30;99.90;;;;;;5114917;28;20456;-70
2021/10/23 08:34:09;;;;;;;13.03;2.80;;;8.40;99.90;;;;;;5116127;28;20455;-69
2021/10/23 08:36:36;;;;;;;9.23;2.73;;;8.40;99.90;;;;;;5118042;28;20456;-69
2021/10/23 08:39:05;;;;;;;9.83;2.33;;;8.60;99.90;;;;;;5118263;28;20465;-69
2021/10/23 08:41:32;;;;;;;5.67;2.40;;;8.70;99.90;;;;;;5118100;28;20471;-70
2021/10/23 08:44:03;;;;;;;5.90;1.53;;;8.70;99.90;;;;;;5118133;28;20470;-70
2021/10/23 08:46:35;;;;;;;7.93;1.60;;;8.80;99.90;;;;;;5117653;28;20527;-68
2021/10/23 08:49:04;;;;;;;5.27;1.90;;;8.80;99.90;;;;;;5117564;28;20827;-68
2021/10/23 08:51:32;;;;;;;8.27;2.57;;;8.80;99.90;;;;;;5118167;27;20513;-69
2021/10/23 08:53:59;;;;;;;9.67;2.17;;;8.90;99.90;;;;;;5117857;28;20468;-69
2021/10/23 08:56:26;;;;;;;7.83;2.10;;;8.90;99.90;;;;;;5118069;28;20459;-69
2021/10/23 08:58:53;;;;;;;6.73;2.10;;;9.00;99.90;;;;;;5117580;28;20457;-69
2021/10/23 09:01:19;;;;;;;14.23;2.73;;;9.00;99.90;;;;;;5118374;28;20476;-69
2021/10/23 09:03:48;;;;;;;9.40;1.90;;;9.00;99.90;;;;;;5121308;28;20460;-69
2021/10/23 09:06:16;;;;;;;10.60;2.37;;;9.00;99.90;;;;;;5122325;28;20452;-69
2021/10/23 09:09:00;;;;;;;10.27;2.37;;;9.00;99.90;;;;;;5121771;27;20469;-69
2021/10/23 09:11:32;;;;;;;10.37;2.30;;;9.10;99.90;;;;;;5122112;28;20460;-69
2021/10/23 09:14:20;;;;;;;7.43;2.57;;;9.10;99.90;;;;;;5121269;28;20460;-69
2021/10/23 09:16:47;;;;;;;9.13;2.30;;;9.10;99.90;;;;;;5117839;28;20441;-69
2021/10/23 09:19:15;;;;;;;9.60;1.83;;;9.10;99.90;;;;;;5117233;28;20453;-69
2021/10/23 09:21:42;;;;;;;8.13;1.63;;;9.10;99.90;;;;;;5117471;28;20934;-69
2021/10/23 09:24:21;;;;;;;5.10;2.37;;;9.20;99.90;;;;;;5117230;28;20481;-69
2021/10/23 09:26:47;;;;;;;8.47;2.63;;;9.30;99.90;;;;;;5117024;28;20479;-69
2021/10/23 09:29:20;;;;;;;9.00;2.00;;;9.30;99.90;;;;;;5117420;28;20479;-69
2021/10/23 09:31:48;;;;;;;8.23;1.83;;;9.20;99.90;;;;;;5116929;28;20543;-69
2021/10/23 09:34:18;;;;;;;6.33;2.10;;;9.30;99.90;;;;;;5117108;28;20470;-69
2021/10/23 09:36:48;;;;;;;5.90;2.00;;;9.30;99.90;;;;;;5116727;28;20456;-69
2021/10/23 09:39:26;;;;;;;6.43;2.00;;;9.30;99.90;;;;;;5117004;28;20533;-69
2021/10/23 09:42:05;;;;;;;8.30;1.73;;;9.40;99.90;;;;;;5116428;27;20467;-69
2021/10/23 09:44:31;;;;;;;4.83;2.30;;;9.50;99.90;;;;;;5116868;28;20779;-69
2021/10/23 09:46:58;;;;;;;8.60;1.97;;;9.60;99.90;;;;;;5116123;28;20478;-69
2021/10/23 09:49:28;;;;;;;8.00;2.00;;;9.70;99.90;;;;;;5116574;28;20481;-70
2021/10/23 09:52:03;;;;;;;2.17;1.60;;;9.80;99.90;;;;;;5116538;28;20551;-69
2021/10/23 09:54:30;;;;;;;5.87;2.00;;;9.80;99.90;;;;;;5116980;28;20500;-69
2021/10/23 09:56:56;;;;;;;8.93;2.60;;;9.80;99.90;;;;;;5116520;28;20463;-69
2021/10/23 09:59:28;;;;;;;6.93;2.20;;;9.90;99.90;;;;;;5116995;28;20457;-69
2021/10/23 10:01:58;;;;;;;11.27;1.87;;;10.00;99.90;;;;;;5117897;28;20788;-69
2021/10/23 10:04:29;;;;;;;6.33;2.00;;;10.10;99.90;;;;;;5116925;28;20441;-69
2021/10/23 10:06:59;;;;;;;10.40;2.60;;;10.20;99.90;;;;;;5115858;28;20495;-69
2021/10/23 10:09:26;;;;;;;4.40;2.10;;;10.30;99.90;;;;;;5116424;28;20566;-69
2021/10/23 10:11:55;;;;;;;11.50;2.03;;;10.30;99.90;;;;;;5116370;28;20764;-70
2021/10/23 10:14:24;;;;;;;9.37;1.87;;;10.30;99.90;;;;;;5116120;28;20516;-69
2021/10/23 10:16:54;;;;;;;5.90;1.77;;;10.30;99.90;;;;;;5115801;27;20521;-70
2021/10/23 10:19:21;;;;;;;9.63;2.40;;;10.30;99.90;;;;;;5116021;28;20463;-69
2021/10/23 10:21:50;;;;;;;9.13;1.80;;;10.40;99.90;;;;;;5116063;28;20455;-69
2021/10/23 10:24:23;;;;;;;5.37;1.60;;;10.50;99.90;;;;;;5116212;28;20795;-70
2021/10/23 10:27:02;;;;;;;7.13;2.27;;;10.60;99.90;;;;;;5116036;28;20536;-69
2021/10/23 10:29:42;;;;;;;5.90;1.40;;;10.60;99.90;;;;;;5115982;28;20457;-70
2021/10/23 10:32:16;;;;;;;7.80;2.00;;;10.60;99.90;;;;;;5115904;28;20784;-70
2021/10/23 10:34:59;;;;;;;8.20;1.73;;;10.60;99.90;;;;;;5116038;28;20441;-69
2021/10/23 10:37:50;;;;;;;8.37;1.97;;;10.70;99.90;;;;;;5115950;28;20440;-68
2021/10/23 10:40:46;;;;;;;8.73;1.83;;;10.70;99.90;;;;;;5115949;28;20444;-68
2021/10/23 10:43:13;;;;;;;7.57;1.93;;;10.80;99.90;;;;;;5115499;28;20809;-69
2021/10/23 10:45:59;;;;;;;4.87;1.80;;;10.90;99.90;;;;;;5115441;28;20453;-69
2021/10/23 10:48:44;;;;;;;7.00;1.47;;;11.00;99.90;;;;;;5115353;28;20547;-69
2021/10/23 10:51:23;;;;;;;5.17;1.97;;;11.00;99.90;;;;;;5115563;28;20761;-69
2021/10/23 10:54:12;;;;;;;11.00;2.50;;;11.10;99.90;;;;;;5115711;28;20438;-70
2021/10/23 10:56:49;;;;;;;8.33;1.80;;;11.10;99.90;;;;;;5110028;28;20536;-68
2021/10/23 10:59:55;;;;;;;10.30;2.40;;;11.20;99.90;;;;;;5114887;28;20904;-68
2021/10/23 11:02:35;;;;;;;6.03;1.93;;;11.20;99.90;;;;;;5115678;28;20543;-69
2021/10/23 11:05:10;;;;;;;7.13;2.43;;;11.20;99.90;;;;;;5115230;28;20485;-69
2021/10/23 11:08:09;;;;;;;5.40;1.80;;;11.20;99.90;;;;;;5115208;28;20496;-69
2021/10/23 11:10:56;;;;;;;7.73;1.80;;;11.20;99.90;;;;;;5116815;28;20453;-69
2021/10/23 11:13:26;;;;;;;5.80;1.87;;;11.30;99.90;;;;;;5117540;28;20445;-69
2021/10/23 11:15:53;;;;;;;7.10;1.77;;;11.40;99.90;;;;;;5118572;28;20452;-69
2021/10/23 11:18:21;;;;;;;5.93;1.50;;;11.50;99.90;;;;;;5118637;28;20448;-69
2021/10/23 11:20:48;;;;;;;4.10;1.80;;;11.40;99.90;;;;;;5119477;28;20460;-70
2021/10/23 11:23:20;;;;;;;9.77;1.80;;;11.50;99.90;;;;;;5117597;28;20456;-69
2021/10/23 11:25:47;;;;;;;7.33;1.90;;;11.50;99.90;;;;;;5116949;28;20518;-70
2021/10/23 11:28:15;;;;;;;6.97;1.67;;;11.60;99.90;;;;;;5115370;28;20478;-69
2021/10/23 11:30:44;;;;;;;9.33;2.00;;;11.60;99.90;;;;;;5115114;28;20460;-69
2021/10/23 11:33:16;;;;;;;8.20;2.00;;;11.70;99.90;;;;;;5115087;28;20574;-69
2021/10/23 11:35:45;;;;;;;5.80;1.77;;;11.80;99.90;;;;;;5115235;28;20877;-69
2021/10/23 11:38:20;;;;;;;6.27;1.87;;;11.70;99.90;;;;;;5115644;28;20454;-69
2021/10/23 11:40:47;;;;;;;6.90;1.93;;;11.70;99.90;;;;;;5115323;28;20437;-69
2021/10/23 11:43:17;;;;;;;11.53;2.50;;;11.80;99.90;;;;;;5115704;28;20464;-68
2021/10/23 11:45:44;;;;;;;6.73;2.30;;;12.00;99.90;;;;;;5114683;28;20454;-68
2021/10/23 11:48:12;;;;;;;7.37;2.10;;;12.20;99.90;;;;;;5114977;28;20477;-68
2021/10/23 11:50:41;;;;;;;8.80;2.30;;;12.90;99.90;;;;;;5114629;28;20453;-70
2021/10/23 11:53:12;;;;;;;8.57;1.87;;;13.70;99.90;;;;;;5114218;28;20926;-69
2021/10/23 11:55:41;;;;;;;4.60;1.80;;;14.20;99.90;;;;;;5114375;28;20462;-69
2021/10/23 11:58:09;;;;;;;7.07;1.90;;;14.30;99.90;;;;;;5114466;28;20453;-69
2021/10/23 12:00:40;;;;;;;11.23;2.33;;;14.20;99.90;;;;;;5114589;28;20840;-69
2021/10/23 12:03:09;;;;;;;2.23;1.43;;;14.10;99.90;;;;;;5114442;28;20437;-68
2021/10/23 12:05:42;;;;;;;7.10;1.70;;;14.10;99.90;;;;;;5114379;28;20471;-70
2021/10/23 12:08:27;;;;;;;11.17;2.03;;;14.10;99.90;;;;;;5114082;28;20503;-70
2021/10/23 12:11:03;;;;;;;5.43;2.33;;;14.20;99.90;;;;;;5117338;28;20452;-68
2021/10/23 12:13:31;;;;;;;4.93;1.97;;;14.30;99.90;;;;;;5118321;28;20486;-69
2021/10/23 12:16:04;;;;;;;10.50;1.90;;;14.80;99.90;;;;;;5118436;28;20455;-69
2021/10/23 12:18:34;;;;;;;4.33;2.00;;;15.70;99.90;;;;;;5118098;28;20490;-68
2021/10/23 12:21:11;;;;;;;5.33;1.40;;;16.40;99.90;;;;;;5118139;28;20480;-68
2021/10/23 12:23:46;;;;;;;6.27;2.03;;;16.40;99.90;;;;;;5118015;28;20452;-68
2021/10/23 12:26:13;;;;;;;7.83;1.70;;;16.40;99.90;;;;;;5118216;27;20440;-68
2021/10/23 12:29:00;;;;;;;6.20;1.80;;;16.80;99.90;;;;;;5117914;28;20939;-69
2021/10/23 12:31:49;;;;;;;8.00;1.60;;;16.90;99.90;;;;;;5118175;28;20846;-68
2021/10/23 12:34:17;;;;;;;6.77;1.90;;;16.50;99.90;;;;;;5117499;27;20834;-68
2021/10/23 12:36:49;;;;;;;4.90;1.67;;;16.20;99.90;;;;;;5118169;28;20456;-69
2021/10/23 12:39:21;;;;;;;4.90;1.63;;;15.70;99.90;;;;;;5118140;28;20837;-68
2021/10/23 12:41:48;;;;;;;9.43;1.90;;;15.40;99.90;;;;;;5117688;28;20811;-69
2021/10/23 12:44:18;;;;;;;3.87;1.60;;;15.00;99.90;;;;;;5117975;28;20464;-70
2021/10/23 12:46:46;;;;;;;3.90;1.77;;;15.30;99.90;;;;;;5118442;27;20457;-69
2021/10/23 12:49:13;;;;;;;3.53;1.10;;;15.90;99.90;;;;;;5118044;28;20887;-69
2021/10/23 12:51:41;;;;;;;7.70;1.40;;;16.30;99.90;;;;;;5117302;28;20452;-69
2021/10/23 12:54:13;;;;;;;4.83;1.77;;;16.50;99.90;;;;;;5117903;28;20457;-67
2021/10/23 12:56:40;;;;;;;4.13;1.20;;;17.10;99.90;;;;;;5117750;28;20808;-68
2021/10/23 12:59:08;;;;;;;4.67;1.83;;;17.80;99.90;;;;;;5118248;28;20457;-69
2021/10/23 13:01:34;;;;;;;7.40;1.90;;;18.00;99.90;;;;;;5117494;27;20787;-69